createdAt,value
2023-02-07T00:01:21.214Z,3.00
2023-02-07T00:03:48.800Z,3.00
2023-02-07T00:06:25.654Z,3.00
2023-02-07T00:08:53.160Z,3.00
2023-02-07T00:11:21.473Z,3.00
2023-02-07T00:13:50.369Z,3.00
2023-02-07T00:16:17.273Z,2.90
2023-02-07T00:18:44.069Z,2.90
2023-02-07T00:21:14.142Z,2.90
2023-02-07T00:23:41.631Z,2.80
2023-02-07T00:26:09.182Z,2.80
2023-02-07T00:28:36.258Z,2.80
2023-02-07T00:31:07.630Z,2.80
2023-02-07T00:33:35.843Z,2.80
2023-02-07T00:36:05.578Z,2.80
2023-02-07T00:38:32.384Z,2.80
2023-02-07T00:41:01.336Z,2.70
2023-02-07T00:43:30.348Z,2.70
2023-02-07T00:46:03.384Z,2.70
2023-02-07T00:48:31.071Z,2.70
2023-02-07T00:50:58.418Z,2.70
2023-02-07T00:53:26.770Z,2.60
2023-02-07T00:55:53.844Z,2.60
2023-02-07T00:58:21.278Z,2.60
2023-02-07T01:00:48.151Z,2.60
2023-02-07T01:03:15.367Z,2.50
2023-02-07T01:05:42.427Z,2.50
2023-02-07T01:08:09.080Z,2.50
2023-02-07T01:10:38.784Z,2.50
2023-02-07T01:13:05.391Z,2.40
2023-02-07T01:15:32.079Z,2.40
2023-02-07T01:17:58.664Z,2.40
2023-02-07T01:20:25.219Z,2.40
2023-02-07T01:22:52.006Z,2.30
2023-02-07T01:25:18.716Z,2.30
2023-02-07T01:27:45.296Z,2.30
2023-02-07T01:30:12.525Z,2.30
2023-02-07T01:32:39.165Z,2.30
2023-02-07T01:35:06.172Z,2.30
2023-02-07T01:37:32.920Z,2.20
2023-02-07T01:39:59.619Z,2.20
2023-02-07T01:42:28.558Z,2.20
2023-02-07T01:44:55.081Z,2.20
2023-02-07T01:47:23.432Z,2.20
2023-02-07T01:49:52.929Z,2.20
2023-02-07T01:52:31.810Z,2.10
2023-02-07T01:55:02.480Z,2.10
2023-02-07T01:57:29.266Z,2.10
2023-02-07T01:59:58.075Z,2.10
2023-02-07T02:02:28.648Z,2.00
2023-02-07T02:04:55.692Z,2.00
2023-02-07T02:07:23.956Z,2.00
2023-02-07T02:09:50.607Z,2.00
2023-02-07T02:12:41.383Z,2.00
2023-02-07T02:15:23.832Z,1.90
2023-02-07T02:18:11.760Z,1.90
2023-02-07T02:20:58.535Z,1.90
2023-02-07T02:23:36.887Z,1.80
2023-02-07T02:26:25.166Z,1.90
2023-02-07T02:29:09.405Z,1.80
2023-02-07T02:32:23.778Z,1.80
2023-02-07T02:35:18.157Z,1.70
2023-02-07T02:37:53.031Z,1.80
2023-02-07T02:40:25.716Z,1.70
2023-02-07T02:43:16.996Z,1.70
2023-02-07T02:45:48.478Z,1.60
2023-02-07T02:48:16.291Z,1.60
2023-02-07T02:50:47.030Z,1.60
2023-02-07T02:53:14.329Z,1.60
2023-02-07T02:56:12.539Z,1.50
2023-02-07T02:59:16.796Z,1.50
2023-02-07T03:02:26.873Z,1.50
2023-02-07T03:05:02.073Z,1.50
2023-02-07T03:08:02.782Z,1.50
2023-02-07T03:10:44.458Z,1.50
2023-02-07T03:13:26.902Z,1.50
2023-02-07T03:16:19.459Z,1.40
2023-02-07T03:19:08.104Z,1.40
2023-02-07T03:21:54.243Z,1.40
2023-02-07T03:24:33.460Z,1.40
2023-02-07T03:27:06.834Z,1.40
2023-02-07T03:29:37.164Z,1.40
2023-02-07T03:32:07.311Z,1.40
2023-02-07T03:34:47.433Z,1.40
2023-02-07T03:37:28.222Z,1.40
2023-02-07T03:39:55.120Z,1.30
2023-02-07T03:42:39.947Z,1.30
2023-02-07T03:45:11.313Z,1.30
2023-02-07T03:47:37.888Z,1.20
2023-02-07T03:50:05.058Z,1.20
2023-02-07T03:52:31.673Z,1.20
2023-02-07T03:54:58.325Z,1.20
2023-02-07T03:57:24.998Z,1.20
2023-02-07T03:59:51.575Z,1.20
2023-02-07T04:02:18.507Z,1.10
2023-02-07T04:04:45.227Z,1.20
2023-02-07T04:07:12.564Z,1.10
2023-02-07T04:09:39.171Z,1.10
2023-02-07T04:12:05.926Z,1.10
2023-02-07T04:14:32.766Z,1.10
2023-02-07T04:16:59.474Z,1.10
2023-02-07T04:19:26.124Z,1.00
2023-02-07T04:21:52.749Z,1.10
2023-02-07T04:24:19.603Z,1.00
2023-02-07T04:26:46.261Z,1.00
2023-02-07T04:29:12.886Z,1.00
2023-02-07T04:31:40.291Z,1.00
2023-02-07T04:34:06.954Z,0.90
2023-02-07T04:36:33.651Z,0.90
2023-02-07T04:39:00.399Z,0.90
2023-02-07T04:41:27.202Z,0.90
2023-02-07T04:43:53.877Z,0.80
2023-02-07T04:46:20.528Z,0.90
2023-02-07T04:48:48.447Z,0.80
2023-02-07T04:51:15.862Z,0.80
2023-02-07T04:53:42.606Z,0.80
2023-02-07T04:56:09.290Z,0.80
2023-02-07T04:58:35.897Z,0.80
2023-02-07T05:01:02.517Z,0.80
2023-02-07T05:03:29.145Z,0.80
2023-02-07T05:05:55.755Z,0.70
2023-02-07T05:08:22.947Z,0.80
2023-02-07T05:10:54.673Z,0.70
2023-02-07T05:13:22.073Z,0.70
2023-02-07T05:15:48.805Z,0.70
2023-02-07T05:18:15.617Z,0.70
2023-02-07T05:20:42.373Z,0.70
2023-02-07T05:23:09.209Z,0.70
2023-02-07T05:25:36.090Z,0.70
2023-02-07T05:28:02.981Z,0.70
2023-02-07T05:30:29.850Z,0.70
2023-02-07T05:33:05.491Z,0.60
2023-02-07T05:35:41.200Z,0.60
2023-02-07T05:38:11.452Z,0.60
2023-02-07T05:40:39.600Z,0.50
2023-02-07T05:43:06.823Z,0.50
2023-02-07T05:45:33.987Z,0.50
2023-02-07T05:48:01.040Z,0.40
2023-02-07T05:50:28.470Z,0.40
2023-02-07T05:52:55.087Z,0.40
2023-02-07T05:55:21.717Z,0.40
2023-02-07T05:57:48.308Z,0.30
2023-02-07T06:00:18.700Z,0.30
2023-02-07T06:02:45.372Z,0.30
2023-02-07T06:05:14.528Z,0.30
2023-02-07T06:07:41.116Z,0.20
2023-02-07T06:10:08.505Z,0.20
2023-02-07T06:12:35.524Z,0.20
2023-02-07T06:15:02.382Z,0.20
2023-02-07T06:17:29.292Z,0.20
2023-02-07T06:19:55.970Z,0.10
2023-02-07T06:22:22.615Z,0.10
2023-02-07T06:24:49.226Z,0.10
2023-02-07T06:27:15.929Z,0.10
2023-02-07T06:29:42.602Z,0.10
2023-02-07T06:32:09.185Z,0.00
2023-02-07T06:34:35.755Z,0.00
2023-02-07T06:37:02.837Z,0.00
2023-02-07T06:39:29.471Z,0.00
2023-02-07T06:41:56.125Z,0.00
2023-02-07T06:44:22.737Z,0.00
2023-02-07T06:46:49.418Z,-0.10
2023-02-07T06:49:17.475Z,-0.10
2023-02-07T06:51:44.190Z,-0.10
2023-02-07T06:54:10.970Z,-0.10
2023-02-07T06:56:38.160Z,-0.10
2023-02-07T06:59:04.818Z,-0.10
2023-02-07T07:01:31.621Z,-0.20
2023-02-07T07:03:58.517Z,-0.20
2023-02-07T07:06:25.096Z,-0.20
2023-02-07T07:08:51.895Z,-0.20
2023-02-07T07:11:19.068Z,-0.30
2023-02-07T07:13:45.851Z,-0.30
2023-02-07T07:16:12.523Z,-0.30
2023-02-07T07:18:39.179Z,-0.30
2023-02-07T07:21:06.595Z,-0.30
2023-02-07T07:23:33.485Z,-0.30
2023-02-07T07:26:00.157Z,-0.30
2023-02-07T07:28:26.775Z,-0.40
2023-02-07T07:30:53.540Z,-0.30
2023-02-07T07:33:20.256Z,-0.40
2023-02-07T07:35:46.927Z,-0.40
2023-02-07T07:38:13.600Z,-0.30
2023-02-07T07:40:40.536Z,-0.40
2023-02-07T07:43:07.416Z,-0.30
2023-02-07T07:45:34.048Z,-0.40
2023-02-07T07:48:00.829Z,-0.30
2023-02-07T07:50:27.509Z,-0.30
2023-02-07T07:52:54.156Z,-0.30
2023-02-07T07:55:20.802Z,-0.30
2023-02-07T07:57:47.412Z,-0.30
2023-02-07T08:00:14.714Z,-0.30
2023-02-07T08:02:42.231Z,-0.20
2023-02-07T08:05:10.847Z,-0.20
2023-02-07T08:07:39.245Z,-0.20
2023-02-07T08:10:06.376Z,-0.20
2023-02-07T08:12:32.997Z,-0.20
2023-02-07T08:14:59.750Z,-0.10
2023-02-07T08:17:26.404Z,-0.10
2023-02-07T08:19:53.066Z,0.00
2023-02-07T08:22:19.968Z,0.00
2023-02-07T08:24:46.571Z,0.10
2023-02-07T08:27:13.213Z,0.20
2023-02-07T08:29:39.897Z,0.20
2023-02-07T08:32:06.684Z,0.40
2023-02-07T08:34:37.364Z,0.50
2023-02-07T08:37:05.794Z,0.60
2023-02-07T08:39:32.532Z,0.70
2023-02-07T08:41:59.214Z,0.70
2023-02-07T08:44:26.024Z,0.70
2023-02-07T08:46:52.596Z,0.80
2023-02-07T08:49:19.215Z,0.90
2023-02-07T08:51:45.989Z,1.10
2023-02-07T08:54:12.586Z,1.60
2023-02-07T08:56:39.169Z,2.00
2023-02-07T08:59:06.037Z,2.50
2023-02-07T09:01:33.063Z,3.00
2023-02-07T09:03:59.705Z,3.20
2023-02-07T09:06:27.143Z,3.30
2023-02-07T09:08:53.884Z,3.30
2023-02-07T09:11:20.772Z,3.30
2023-02-07T09:13:47.502Z,3.30
2023-02-07T09:16:14.853Z,3.30
2023-02-07T09:18:42.130Z,3.30
2023-02-07T09:21:08.772Z,3.40
2023-02-07T09:23:35.808Z,3.50
2023-02-07T09:26:05.153Z,3.60
2023-02-07T09:28:32.230Z,3.80
2023-02-07T09:30:58.999Z,3.90
2023-02-07T09:33:25.770Z,4.10
2023-02-07T09:35:54.601Z,4.70
2023-02-07T09:38:25.629Z,5.20
2023-02-07T09:40:53.561Z,5.80
2023-02-07T09:43:39.477Z,6.50
2023-02-07T09:46:19.318Z,7.30
2023-02-07T09:48:56.039Z,7.70
2023-02-07T09:51:24.132Z,7.90
2023-02-07T09:54:12.439Z,8.20
2023-02-07T09:56:40.604Z,9.10
2023-02-07T09:59:30.183Z,10.20
2023-02-07T10:02:03.776Z,11.10
2023-02-07T10:04:38.339Z,12.30
2023-02-07T10:07:07.696Z,13.40
2023-02-07T10:09:39.551Z,14.80
2023-02-07T10:12:17.804Z,16.00
2023-02-07T10:14:59.997Z,17.00
2023-02-07T10:17:45.293Z,17.70
2023-02-07T10:20:38.525Z,17.80
2023-02-07T10:23:24.297Z,17.50
2023-02-07T10:26:18.622Z,17.30
2023-02-07T10:29:13.108Z,17.40
2023-02-07T10:31:44.261Z,17.60
2023-02-07T10:34:21.256Z,17.80
2023-02-07T10:36:51.242Z,17.60
2023-02-07T10:39:37.686Z,17.60
2023-02-07T10:42:04.775Z,18.00
2023-02-07T10:44:31.729Z,18.50
2023-02-07T10:47:01.694Z,18.70
2023-02-07T10:49:35.916Z,18.90
2023-02-07T10:52:14.753Z,18.60
2023-02-07T10:54:52.112Z,18.30
2023-02-07T10:57:20.021Z,18.10
2023-02-07T10:59:47.543Z,17.60
2023-02-07T11:02:30.911Z,17.20
2023-02-07T11:05:24.162Z,16.80
2023-02-07T11:08:18.669Z,16.40
2023-02-07T11:10:48.401Z,15.80
2023-02-07T11:13:30.022Z,15.10
2023-02-07T11:15:57.048Z,14.40
2023-02-07T11:18:29.823Z,13.50
2023-02-07T11:20:56.681Z,12.70
2023-02-07T11:23:24.652Z,12.50
2023-02-07T11:25:55.089Z,12.40
2023-02-07T11:28:26.001Z,12.30
2023-02-07T11:30:56.477Z,12.40
2023-02-07T11:33:27.097Z,12.30
2023-02-07T11:36:04.599Z,12.30
2023-02-07T11:38:32.132Z,12.60
2023-02-07T11:41:06.743Z,12.60
2023-02-07T11:43:35.303Z,12.30
2023-02-07T11:46:09.231Z,11.90
2023-02-07T11:48:40.100Z,11.60
2023-02-07T11:51:09.633Z,11.50
2023-02-07T11:53:51.150Z,11.50
2023-02-07T11:56:33.398Z,11.60
2023-02-07T11:59:03.719Z,11.80
2023-02-07T12:01:33.618Z,11.90
2023-02-07T12:04:37.533Z,12.10
2023-02-07T12:07:25.637Z,12.40
2023-02-07T12:09:57.929Z,12.60
2023-02-07T12:12:58.731Z,13.00
2023-02-07T12:15:37.633Z,13.40
2023-02-07T12:18:18.494Z,13.60
2023-02-07T12:21:04.960Z,13.80
2023-02-07T12:23:42.727Z,14.00
2023-02-07T12:26:34.741Z,14.00
2023-02-07T12:29:15.704Z,14.10
2023-02-07T12:31:49.504Z,14.30
2023-02-07T12:34:45.028Z,14.30
2023-02-07T12:37:19.337Z,14.20
2023-02-07T12:39:58.104Z,14.10
2023-02-07T12:42:37.101Z,14.10
2023-02-07T12:45:05.420Z,14.30
2023-02-07T12:47:47.282Z,14.40
2023-02-07T12:50:27.615Z,14.40
2023-02-07T12:53:07.380Z,14.50
2023-02-07T12:55:40.165Z,14.70
2023-02-07T12:58:38.454Z,14.60
2023-02-07T13:01:23.032Z,14.40
2023-02-07T13:04:04.892Z,14.00
2023-02-07T13:07:16.815Z,13.40
2023-02-07T13:09:56.858Z,13.00
2023-02-07T13:12:38.228Z,12.60
2023-02-07T13:15:17.764Z,12.30
2023-02-07T13:17:49.557Z,12.20
2023-02-07T13:20:26.184Z,11.90
2023-02-07T13:23:00.546Z,11.60
2023-02-07T13:25:40.842Z,11.40
2023-02-07T13:28:18.410Z,11.10
2023-02-07T13:30:47.897Z,10.90
2023-02-07T13:33:34.079Z,10.70
2023-02-07T13:36:16.875Z,10.50
2023-02-07T13:38:44.209Z,10.30
2023-02-07T13:41:33.974Z,10.10
2023-02-07T13:44:09.887Z,9.90
2023-02-07T13:47:11.424Z,9.80
2023-02-07T13:49:55.648Z,9.60
2023-02-07T13:53:02.576Z,9.50
2023-02-07T13:55:32.310Z,9.30
2023-02-07T13:58:18.314Z,9.20
2023-02-07T14:00:47.624Z,9.10
2023-02-07T14:03:21.736Z,9.00
2023-02-07T14:05:48.417Z,8.90
2023-02-07T14:08:17.745Z,8.80
2023-02-07T14:10:51.639Z,8.70
2023-02-07T14:13:21.348Z,8.50
2023-02-07T14:15:48.517Z,8.40
2023-02-07T14:18:38.394Z,8.30
2023-02-07T14:21:21.390Z,8.20
2023-02-07T14:24:04.998Z,8.10
2023-02-07T14:26:40.783Z,8.00
2023-02-07T14:29:22.766Z,7.90
2023-02-07T14:32:00.881Z,7.80
2023-02-07T14:34:51.909Z,7.70
2023-02-07T14:37:39.876Z,7.70
2023-02-07T14:40:19.320Z,7.60
2023-02-07T14:42:58.456Z,7.60
2023-02-07T14:45:28.593Z,7.60
2023-02-07T14:47:55.434Z,7.50
2023-02-07T14:50:28.273Z,7.50
2023-02-07T14:52:55.917Z,7.40
2023-02-07T14:55:34.391Z,7.40
2023-02-07T14:58:06.848Z,7.30
2023-02-07T15:00:45.856Z,7.30
2023-02-07T15:03:16.397Z,7.20
2023-02-07T15:05:55.638Z,7.20
2023-02-07T15:08:25.005Z,7.20
2023-02-07T15:11:07.026Z,7.10
2023-02-07T15:13:41.937Z,7.00
2023-02-07T15:16:31.408Z,6.90
2023-02-07T15:19:00.267Z,6.90
2023-02-07T15:21:41.830Z,6.80
2023-02-07T15:24:22.145Z,6.80
2023-02-07T15:26:50.476Z,6.70
2023-02-07T15:29:25.368Z,6.60
2023-02-07T15:31:53.345Z,6.60
2023-02-07T15:34:23.316Z,6.50
2023-02-07T15:36:52.089Z,6.50
2023-02-07T15:39:23.002Z,6.40
2023-02-07T15:41:52.570Z,6.30
2023-02-07T15:44:28.172Z,6.30
2023-02-07T15:46:57.819Z,6.20
2023-02-07T15:49:31.965Z,6.10
2023-02-07T15:52:21.450Z,6.10
2023-02-07T15:54:51.849Z,6.00
2023-02-07T15:57:24.481Z,5.90
2023-02-07T15:59:53.206Z,5.90
2023-02-07T16:02:32.712Z,5.90
2023-02-07T16:05:08.192Z,5.80
2023-02-07T16:07:36.197Z,5.70
2023-02-07T16:10:39.474Z,5.70
2023-02-07T16:13:19.174Z,5.60
2023-02-07T16:15:56.990Z,5.60
2023-02-07T16:18:46.338Z,5.50
2023-02-07T16:21:25.350Z,5.40
2023-02-07T16:23:56.155Z,5.30
2023-02-07T16:26:27.701Z,5.30
2023-02-07T16:28:55.438Z,5.20
2023-02-07T16:31:22.384Z,5.10
2023-02-07T16:33:49.335Z,5.10
2023-02-07T16:36:18.332Z,5.00
2023-02-07T16:38:46.193Z,4.90
2023-02-07T16:41:31.939Z,4.80
2023-02-07T16:44:00.997Z,4.70
2023-02-07T16:46:28.019Z,4.70
2023-02-07T16:48:54.878Z,4.60
2023-02-07T16:51:21.449Z,4.50
2023-02-07T16:53:48.092Z,4.50
2023-02-07T16:56:26.691Z,4.40
2023-02-07T16:58:53.727Z,4.40
2023-02-07T17:01:22.284Z,4.30
2023-02-07T17:03:49.124Z,4.20
2023-02-07T17:06:20.976Z,4.20
2023-02-07T17:08:49.185Z,4.10
2023-02-07T17:11:25.065Z,4.10
2023-02-07T17:13:55.926Z,4.00
2023-02-07T17:16:23.958Z,3.90
2023-02-07T17:18:50.820Z,3.90
2023-02-07T17:21:18.158Z,3.80
2023-02-07T17:23:49.069Z,3.80
2023-02-07T17:26:25.095Z,3.80
2023-02-07T17:28:52.736Z,3.70
2023-02-07T17:31:19.716Z,3.70
2023-02-07T17:33:48.269Z,3.60
2023-02-07T17:36:16.182Z,3.60
2023-02-07T17:38:43.344Z,3.50
2023-02-07T17:41:14.274Z,3.50
2023-02-07T17:43:41.390Z,3.50
2023-02-07T17:46:27.576Z,3.40
2023-02-07T17:48:55.244Z,3.40
2023-02-07T17:51:24.214Z,3.30
2023-02-07T17:53:51.769Z,3.30
2023-02-07T17:56:26.092Z,3.20
2023-02-07T17:58:54.066Z,3.20
2023-02-07T18:01:21.564Z,3.20
2023-02-07T18:03:53.864Z,3.10
2023-02-07T18:06:26.139Z,3.10
2023-02-07T18:08:55.665Z,3.00
2023-02-07T18:11:22.997Z,3.00
2023-02-07T18:13:50.151Z,2.90
2023-02-07T18:16:21.852Z,2.90
2023-02-07T18:18:52.617Z,2.90
2023-02-07T18:21:19.257Z,2.90
2023-02-07T18:23:45.902Z,2.90
2023-02-07T18:26:14.973Z,2.80
2023-02-07T18:28:42.975Z,2.80
2023-02-07T18:31:12.202Z,2.80
2023-02-07T18:33:39.013Z,2.80
2023-02-07T18:36:06.513Z,2.70
2023-02-07T18:38:33.547Z,2.70
2023-02-07T18:41:00.169Z,2.70
2023-02-07T18:43:27.029Z,2.60
2023-02-07T18:45:54.192Z,2.60
2023-02-07T18:48:24.473Z,2.50
2023-02-07T18:50:52.296Z,2.50
2023-02-07T18:53:21.298Z,2.40
2023-02-07T18:55:50.176Z,2.40
2023-02-07T18:58:16.798Z,2.40
2023-02-07T19:00:43.429Z,2.30
2023-02-07T19:03:10.009Z,2.20
2023-02-07T19:05:36.669Z,2.20
2023-02-07T19:08:03.439Z,2.20
2023-02-07T19:10:30.267Z,2.10
2023-02-07T19:12:56.912Z,2.00
2023-02-07T19:15:23.602Z,2.00
2023-02-07T19:17:50.241Z,1.90
2023-02-07T19:20:16.968Z,1.90
2023-02-07T19:22:45.075Z,1.90
2023-02-07T19:25:13.155Z,1.80
2023-02-07T19:27:39.799Z,1.80
2023-02-07T19:30:07.974Z,1.80
2023-02-07T19:32:34.616Z,1.70
2023-02-07T19:35:01.436Z,1.70
2023-02-07T19:37:28.124Z,1.60
2023-02-07T19:39:56.141Z,1.60
2023-02-07T19:42:24.599Z,1.60
2023-02-07T19:44:51.266Z,1.60
2023-02-07T19:47:17.891Z,1.60
2023-02-07T19:49:45.164Z,1.50
2023-02-07T19:52:11.724Z,1.50
2023-02-07T19:54:38.328Z,1.50
2023-02-07T19:57:04.936Z,1.50
2023-02-07T19:59:31.520Z,1.50
2023-02-07T20:01:58.188Z,1.40
2023-02-07T20:04:24.826Z,1.40
2023-02-07T20:06:51.430Z,1.40
2023-02-07T20:09:18.125Z,1.40
2023-02-07T20:11:44.766Z,1.40
2023-02-07T20:14:11.457Z,1.40
2023-02-07T20:16:38.968Z,1.40
2023-02-07T20:19:07.367Z,1.30
2023-02-07T20:21:35.584Z,1.30
2023-02-07T20:24:02.440Z,1.30
2023-02-07T20:26:36.548Z,1.30
2023-02-07T20:29:05.816Z,1.30
2023-02-07T20:31:32.749Z,1.30
2023-02-07T20:33:59.824Z,1.30
2023-02-07T20:36:26.809Z,1.20
2023-02-07T20:38:55.991Z,1.20
2023-02-07T20:41:31.379Z,1.20
2023-02-07T20:44:08.068Z,1.20
2023-02-07T20:46:36.107Z,1.20
2023-02-07T20:49:16.588Z,1.20
2023-02-07T20:51:44.376Z,1.20
2023-02-07T20:54:12.395Z,1.10
2023-02-07T20:56:39.054Z,1.10
2023-02-07T20:59:06.886Z,1.10
2023-02-07T21:01:35.154Z,1.10
2023-02-07T21:04:05.063Z,1.00
2023-02-07T21:06:32.603Z,1.00
2023-02-07T21:09:01.656Z,1.00
2023-02-07T21:11:39.213Z,1.00
2023-02-07T21:14:16.485Z,1.00
2023-02-07T21:16:43.359Z,1.00
2023-02-07T21:19:10.762Z,1.00
2023-02-07T21:21:37.721Z,1.00
2023-02-07T21:24:04.628Z,0.90
2023-02-07T21:26:31.281Z,1.00
2023-02-07T21:29:02.747Z,0.90
2023-02-07T21:31:30.907Z,0.90
2023-02-07T21:33:57.835Z,0.90
2023-02-07T21:36:30.386Z,0.90
2023-02-07T21:38:59.268Z,0.90
2023-02-07T21:41:28.357Z,0.90
2023-02-07T21:43:55.979Z,0.90
2023-02-07T21:46:25.001Z,0.80
2023-02-07T21:48:57.171Z,0.90
2023-02-07T21:51:25.758Z,0.80
2023-02-07T21:53:54.294Z,0.90
2023-02-07T21:56:30.256Z,0.80
2023-02-07T21:59:02.008Z,0.80
2023-02-07T22:01:30.074Z,0.80
2023-02-07T22:03:59.242Z,0.80
2023-02-07T22:06:28.072Z,0.70
2023-02-07T22:08:57.018Z,0.70
2023-02-07T22:11:25.968Z,0.70
2023-02-07T22:13:53.480Z,0.70
2023-02-07T22:16:22.269Z,0.70
2023-02-07T22:18:49.409Z,0.70
2023-02-07T22:21:20.003Z,0.60
2023-02-07T22:23:46.771Z,0.60
2023-02-07T22:26:13.903Z,0.60
2023-02-07T22:28:42.040Z,0.60
2023-02-07T22:31:17.468Z,0.60
2023-02-07T22:33:44.066Z,0.60
2023-02-07T22:36:15.176Z,0.60
2023-02-07T22:38:41.982Z,0.60
2023-02-07T22:41:09.266Z,0.50
2023-02-07T22:43:36.658Z,0.50
2023-02-07T22:46:08.756Z,0.50
2023-02-07T22:48:35.862Z,0.50
2023-02-07T22:51:28.935Z,0.50
2023-02-07T22:53:59.212Z,0.50
2023-02-07T22:56:26.845Z,0.50
2023-02-07T22:58:54.275Z,0.50
2023-02-07T23:01:32.458Z,0.50
2023-02-07T23:03:59.269Z,0.50
2023-02-07T23:06:26.622Z,0.40
2023-02-07T23:08:54.282Z,0.40
2023-02-07T23:11:23.451Z,0.40
2023-02-07T23:13:51.153Z,0.40
2023-02-07T23:16:20.782Z,0.40
2023-02-07T23:18:48.443Z,0.40
2023-02-07T23:21:18.133Z,0.40
2023-02-07T23:23:45.524Z,0.40
2023-02-07T23:26:15.630Z,0.30
2023-02-07T23:28:42.569Z,0.30
2023-02-07T23:31:12.972Z,0.30
2023-02-07T23:33:39.886Z,0.30
2023-02-07T23:36:07.474Z,0.20
2023-02-07T23:38:34.776Z,0.20
2023-02-07T23:41:01.694Z,0.20
2023-02-07T23:43:28.304Z,0.20
2023-02-07T23:45:55.017Z,0.20
2023-02-07T23:48:21.943Z,0.20
2023-02-07T23:50:58.062Z,0.20
2023-02-07T23:53:25.441Z,0.20
2023-02-07T23:55:54.382Z,0.20
2023-02-07T23:58:21.705Z,0.20
